Time;durP1;ratioP1;P1;durP2;ratioP2;P2;SDS_P1;SDS_P2;PMS_P1;PMS_P2;Temp;Humidity;BMP_temperature;BMP_pressure;BME280_temperature;BME280_humidity;BME280_pressure;Samples;Min_cycle;Max_cycle;Signal;HPM_P1;HPM_P2
2023/08/29 00:00:04;;;;;;;9.80;7.50;;;;;;;-128.00;-1.00;-1.00;18878;344;7503913;-32
2023/08/29 00:02:32;;;;;;;7.80;7.00;;;;;;;-128.00;-1.00;-1.00;18508;287;7504489;-32
2023/08/29 00:04:58;;;;;;;9.10;8.10;;;;;;;-128.00;-1.00;-1.00;18473;347;7506893;-35
2023/08/29 00:07:24;;;;;;;7.30;6.70;;;;;;;-128.00;-1.00;-1.00;18479;299;7504933;-33
2023/08/29 00:09:52;;;;;;;13.30;6.60;;;;;;;-128.00;-1.00;-1.00;18472;296;7504691;-32
2023/08/29 00:12:18;;;;;;;7.10;6.40;;;;;;;-128.00;-1.00;-1.00;18467;336;7506269;-36
2023/08/29 00:14:44;;;;;;;6.60;6.10;;;;;;;-128.00;-1.00;-1.00;18482;296;7506414;-35
2023/08/29 00:17:09;;;;;;;5.90;5.40;;;;;;;-128.00;-1.00;-1.00;18477;296;7505202;-32
2023/08/29 00:19:35;;;;;;;6.00;5.40;;;;;;;-128.00;-1.00;-1.00;18921;287;7505124;-35
2023/08/29 00:22:01;;;;;;;7.20;6.60;;;;;;;-128.00;-1.00;-1.00;18468;288;7506053;-32
2023/08/29 00:24:28;;;;;;;6.80;6.10;;;;;;;-128.00;-1.00;-1.00;18876;340;7504490;-32
2023/08/29 00:26:54;;;;;;;5.70;5.20;;;;;;;-128.00;-1.00;-1.00;18884;319;7505295;-32
2023/08/29 00:29:20;;;;;;;7.50;6.90;;;;;;;-128.00;-1.00;-1.00;18872;296;7504619;-32
2023/08/29 00:31:46;;;;;;;7.00;6.40;;;;;;;-128.00;-1.00;-1.00;18874;347;7505872;-35
2023/08/29 00:34:12;;;;;;;8.60;7.90;;;;;;;-128.00;-1.00;-1.00;18854;296;7504771;-36
2023/08/29 00:36:38;;;;;;;7.50;6.80;;;;;;;-128.00;-1.00;-1.00;18875;296;7505114;-38
2023/08/29 01:18:13;;;;;;;7.60;6.80;;;;;;;-99.80;19.20;19725.61;19582;297;8045513;-34
2023/08/29 01:20:39;;;;;;;10.40;6.70;;;;;;;-128.00;-1.00;-1.00;18467;298;7504159;-34
2023/08/29 01:23:31;;;;;;;8.40;7.70;;;;;;;-128.00;-1.00;-1.00;18871;296;7504623;-35
2023/08/29 01:26:11;;;;;;;6.50;5.90;;;;;;;-128.00;-1.00;-1.00;18488;296;7504604;-34
2023/08/29 01:28:37;;;;;;;4.60;4.20;;;;;;;-128.00;-1.00;-1.00;18485;296;7504511;-37
2023/08/29 01:31:04;;;;;;;5.20;4.70;;;;;;;-128.00;-1.00;-1.00;18454;297;7505483;-33
2023/08/29 01:33:30;;;;;;;4.90;4.40;;;;;;;-128.00;-1.00;-1.00;18461;296;7506638;-33
2023/08/29 01:35:56;;;;;;;6.70;5.20;;;;;;;-128.00;-1.00;-1.00;18462;296;7506203;-36
2023/08/29 01:38:22;;;;;;;3.90;3.60;;;;;;;-128.00;-1.00;-1.00;18468;296;7505040;-33
2023/08/29 01:40:48;;;;;;;7.80;5.80;;;;;;;-128.00;-1.00;-1.00;18887;341;7504450;-33
2023/08/29 01:43:14;;;;;;;5.40;4.90;;;;;;;-128.00;-1.00;-1.00;18849;297;7504368;-33
2023/08/29 01:45:40;;;;;;;3.50;3.00;;;;;;;-128.00;-1.00;-1.00;18865;298;7504585;-33
2023/08/29 01:48:06;;;;;;;4.80;4.40;;;;;;;-128.00;-1.00;-1.00;18882;296;7504438;-37
2023/08/29 01:50:33;;;;;;;3.70;3.40;;;;;;;-128.00;-1.00;-1.00;18854;349;7505536;-34
2023/08/29 01:53:00;;;;;;;2.70;2.20;;;;;;;-128.00;-1.00;-1.00;18861;349;7504817;-36
2023/08/29 01:55:26;;;;;;;2.10;1.50;;;;;;;-128.00;-1.00;-1.00;18437;349;7504562;-36
2023/08/29 01:57:51;;;;;;;1.80;1.40;;;;;;;-128.00;-1.00;-1.00;18463;296;7506062;-33
2023/08/29 02:00:17;;;;;;;2.60;1.70;;;;;;;-128.00;-1.00;-1.00;18477;296;7505008;-36
2023/08/29 02:02:43;;;;;;;1.80;1.30;;;;;;;-128.00;-1.00;-1.00;18457;297;7504803;-33
2023/08/29 02:05:09;;;;;;;2.10;1.50;;;;;;;-128.00;-1.00;-1.00;18854;296;7504958;-33
2023/08/29 02:07:35;;;;;;;1.50;1.30;;;;;;;-128.00;-1.00;-1.00;18874;296;7505224;-36
2023/08/29 02:10:02;;;;;;;1.10;1.00;;;;;;;-128.00;-1.00;-1.00;18877;296;7504212;-33
2023/08/29 02:12:28;;;;;;;1.20;1.10;;;;;;;-128.00;-1.00;-1.00;18485;296;7505012;-32
2023/08/29 02:14:54;;;;;;;0.90;0.70;;;;;;;-128.00;-1.00;-1.00;18849;320;7504438;-32
2023/08/29 02:17:20;;;;;;;1.90;1.60;;;;;;;-128.00;-1.00;-1.00;18876;296;7504237;-34
2023/08/29 02:19:48;;;;;;;1.20;0.90;;;;;;;-128.00;-1.00;-1.00;18482;336;7505215;-36
2023/08/29 02:22:14;;;;;;;1.40;1.00;;;;;;;-128.00;-1.00;-1.00;18895;296;7504352;-33
2023/08/29 02:24:41;;;;;;;1.30;0.80;;;;;;;-128.00;-1.00;-1.00;18446;296;7504847;-36
2023/08/29 02:27:06;;;;;;;1.50;0.80;;;;;;;-128.00;-1.00;-1.00;18459;298;7505725;-33
2023/08/29 02:29:32;;;;;;;1.30;1.10;;;;;;;-128.00;-1.00;-1.00;18871;289;7504676;-32
2023/08/29 02:31:58;;;;;;;1.20;1.00;;;;;;;-128.00;-1.00;-1.00;18888;348;7504522;-36
2023/08/29 02:34:25;;;;;;;1.60;1.40;;;;;;;-128.00;-1.00;-1.00;18882;297;7504534;-35
2023/08/29 02:36:52;;;;;;;1.40;1.20;;;;;;;-128.00;-1.00;-1.00;18472;285;7504518;-36
2023/08/29 02:39:18;;;;;;;1.30;1.20;;;;;;;-128.00;-1.00;-1.00;18459;296;7505972;-36
2023/08/29 02:41:44;;;;;;;2.20;1.90;;;;;;;-128.00;-1.00;-1.00;18471;296;7504657;-37
2023/08/29 02:44:10;;;;;;;2.50;1.90;;;;;;;-128.00;-1.00;-1.00;18466;296;7504549;-33
2023/08/29 02:46:36;;;;;;;2.30;2.00;;;;;;;-128.00;-1.00;-1.00;18865;342;7504304;-35
2023/08/29 02:49:02;;;;;;;2.50;1.80;;;;;;;-128.00;-1.00;-1.00;18869;349;7506113;-33
2023/08/29 02:51:28;;;;;;;2.30;2.10;;;;;;;-128.00;-1.00;-1.00;18869;289;7506062;-35
2023/08/29 02:53:54;;;;;;;4.10;1.10;;;;;;;-128.00;-1.00;-1.00;18897;296;7504518;-32
2023/08/29 02:56:20;;;;;;;1.80;1.70;;;;;;;-128.00;-1.00;-1.00;18878;296;7505312;-36
2023/08/29 02:58:47;;;;;;;2.10;1.90;;;;;;;-128.00;-1.00;-1.00;18883;296;7504960;-36
2023/08/29 03:01:13;;;;;;;4.00;3.30;;;;;;;-128.00;-1.00;-1.00;18476;289;7505763;-38
2023/08/29 03:03:39;;;;;;;3.80;2.60;;;;;;;-128.00;-1.00;-1.00;18482;285;7504502;-38
2023/08/29 03:06:05;;;;;;;1.50;1.40;;;;;;;-128.00;-1.00;-1.00;18455;296;7504414;-34
2023/08/29 03:08:30;;;;;;;2.80;2.60;;;;;;;-128.00;-1.00;-1.00;18501;297;7506597;-34
2023/08/29 03:10:56;;;;;;;3.20;2.70;;;;;;;-128.00;-1.00;-1.00;18460;319;7504661;-35
2023/08/29 03:13:22;;;;;;;9.60;3.20;;;;;;;-128.00;-1.00;-1.00;18445;285;7504983;-35
2023/08/29 03:15:48;;;;;;;3.80;3.40;;;;;;;-128.00;-1.00;-1.00;18492;296;7505971;-39
2023/08/29 03:18:14;;;;;;;3.40;3.20;;;;;;;-128.00;-1.00;-1.00;18450;336;7504656;-39
2023/08/29 03:20:43;;;;;;;3.60;2.90;;;;;;;-128.00;-1.00;-1.00;18469;296;7504208;-35
2023/08/29 03:23:09;;;;;;;3.00;2.80;;;;;;;-128.00;-1.00;-1.00;18498;296;7506495;-35
2023/08/29 03:25:35;;;;;;;4.40;3.30;;;;;;;-128.00;-1.00;-1.00;18475;289;7505181;-37
2023/08/29 03:28:01;;;;;;;3.50;2.70;;;;;;;-128.00;-1.00;-1.00;18494;285;7506045;-38
2023/08/29 03:30:27;;;;;;;5.60;5.10;;;;;;;-128.00;-1.00;-1.00;18458;285;7505562;-33
2023/08/29 03:32:52;;;;;;;5.80;4.40;;;;;;;-128.00;-1.00;-1.00;18489;296;7505157;-34
2023/08/29 03:35:18;;;;;;;6.80;6.10;;;;;;;-128.00;-1.00;-1.00;18464;285;7504587;-37
2023/08/29 03:37:44;;;;;;;4.00;3.60;;;;;;;-128.00;-1.00;-1.00;18448;285;7504604;-38
2023/08/29 03:40:11;;;;;;;3.90;3.50;;;;;;;-128.00;-1.00;-1.00;18468;285;7505408;-33
2023/08/29 03:42:36;;;;;;;6.20;5.20;;;;;;;-128.00;-1.00;-1.00;18487;296;7504703;-33
2023/08/29 03:45:03;;;;;;;4.60;4.20;;;;;;;-128.00;-1.00;-1.00;18497;296;7504939;-34
2023/08/29 03:47:29;;;;;;;5.10;4.10;;;;;;;-128.00;-1.00;-1.00;18477;296;7506050;-34
2023/08/29 03:49:55;;;;;;;5.00;4.60;;;;;;;-128.00;-1.00;-1.00;18458;296;7504795;-35
2023/08/29 03:52:26;;;;;;;7.80;6.60;;;;;;;-128.00;-1.00;-1.00;18879;348;7504230;-37
2023/08/29 03:54:53;;;;;;;7.50;6.50;;;;;;;-128.00;-1.00;-1.00;18451;285;7505783;-33
2023/08/29 03:57:19;;;;;;;3.40;3.10;;;;;;;-128.00;-1.00;-1.00;18459;285;7506186;-33
2023/08/29 03:59:45;;;;;;;4.50;4.20;;;;;;;-128.00;-1.00;-1.00;18454;296;7505352;-33
2023/08/29 04:02:11;;;;;;;6.50;4.90;;;;;;;-128.00;-1.00;-1.00;18880;285;7505239;-37
2023/08/29 04:04:38;;;;;;;6.20;5.60;;;;;;;-128.00;-1.00;-1.00;18882;319;7504409;-34
2023/08/29 04:07:04;;;;;;;7.40;4.40;;;;;;;-128.00;-1.00;-1.00;18881;298;7504731;-36
2023/08/29 04:09:31;;;;;;;7.40;3.40;;;;;;;-128.00;-1.00;-1.00;18469;289;7504381;-36
2023/08/29 04:11:56;;;;;;;10.70;5.40;;;;;;;-128.00;-1.00;-1.00;18454;296;7504390;-33
2023/08/29 04:14:22;;;;;;;8.00;7.20;;;;;;;-128.00;-1.00;-1.00;18903;285;7504337;-33
2023/08/29 04:16:49;;;;;;;6.20;5.70;;;;;;;-128.00;-1.00;-1.00;18872;285;7504231;-33
2023/08/29 04:19:16;;;;;;;7.40;6.70;;;;;;;-128.00;-1.00;-1.00;18872;345;7505287;-33
2023/08/29 04:21:42;;;;;;;6.40;5.80;;;;;;;-128.00;-1.00;-1.00;18484;296;7504723;-37
2023/08/29 04:24:09;;;;;;;9.60;8.30;;;;;;;-128.00;-1.00;-1.00;18451;298;7505821;-37
2023/08/29 04:26:35;;;;;;;15.60;9.00;;;;;;;-128.00;-1.00;-1.00;18474;296;7504617;-34
2023/08/29 04:29:01;;;;;;;9.40;8.50;;;;;;;-128.00;-1.00;-1.00;18866;348;7504249;-35
2023/08/29 04:31:27;;;;;;;7.30;6.40;;;;;;;-128.00;-1.00;-1.00;18880;289;7505351;-36
2023/08/29 04:33:53;;;;;;;14.80;11.50;;;;;;;-128.00;-1.00;-1.00;18863;336;7504341;-33
2023/08/29 04:36:19;;;;;;;14.20;12.70;;;;;;;-128.00;-1.00;-1.00;18867;289;7504230;-32
2023/08/29 04:38:49;;;;;;;13.30;10.40;;;;;;;-128.00;-1.00;-1.00;18883;289;7504424;-36
2023/08/29 04:41:14;;;;;;;18.00;14.30;;;;;;;-128.00;-1.00;-1.00;18456;297;7504855;-35
2023/08/29 04:43:40;;;;;;;17.70;15.80;;;;;;;-128.00;-1.00;-1.00;18445;320;7506244;-32
2023/08/29 04:46:08;;;;;;;20.50;18.30;;;;;;;-128.00;-1.00;-1.00;18473;284;7506044;-34
2023/08/29 04:48:36;;;;;;;10.30;9.40;;;;;;;-128.00;-1.00;-1.00;18447;298;7505072;-37
2023/08/29 04:51:04;;;;;;;8.20;7.10;;;;;;;-128.00;-1.00;-1.00;18511;297;7504846;-36
2023/08/29 04:53:31;;;;;;;5.50;5.00;;;;;;;-128.00;-1.00;-1.00;18451;296;7506188;-36
2023/08/29 04:56:03;;;;;;;8.30;7.40;;;;;;;-128.00;-1.00;-1.00;18482;296;7504325;-36
2023/08/29 04:58:29;;;;;;;10.70;7.00;;;;;;;-128.00;-1.00;-1.00;18450;296;7504174;-32
2023/08/29 05:00:55;;;;;;;4.30;3.90;;;;;;;-128.00;-1.00;-1.00;18466;289;7504601;-34
2023/08/29 05:03:21;;;;;;;5.90;5.30;;;;;;;-128.00;-1.00;-1.00;18473;285;7505139;-35
2023/08/29 05:05:47;;;;;;;7.90;7.20;;;;;;;-128.00;-1.00;-1.00;18491;285;7504574;-35
2023/08/29 05:08:13;;;;;;;5.40;4.90;;;;;;;-128.00;-1.00;-1.00;18458;332;7504451;-32
2023/08/29 05:10:39;;;;;;;9.00;8.30;;;;;;;-128.00;-1.00;-1.00;18449;336;7504427;-33
2023/08/29 05:13:04;;;;;;;8.80;8.00;;;;;;;-128.00;-1.00;-1.00;18457;285;7506873;-33
2023/08/29 05:15:31;;;;;;;6.60;6.00;;;;;;;-128.00;-1.00;-1.00;18442;297;7504765;-36
2023/08/29 05:17:57;;;;;;;4.20;3.80;;;;;;;-128.00;-1.00;-1.00;18487;284;7504725;-33
2023/08/29 05:20:22;;;;;;;10.20;8.00;;;;;;;-128.00;-1.00;-1.00;18455;296;7505866;-36
2023/08/29 05:22:49;;;;;;;8.40;7.60;;;;;;;-128.00;-1.00;-1.00;18869;289;7506054;-36
2023/08/29 05:25:15;;;;;;;8.60;7.30;;;;;;;-128.00;-1.00;-1.00;18863;289;7505116;-36
2023/08/29 05:27:41;;;;;;;7.80;7.10;;;;;;;-128.00;-1.00;-1.00;18884;289;7504669;-38
2023/08/29 05:30:08;;;;;;;9.40;8.50;;;;;;;-128.00;-1.00;-1.00;18858;296;7504886;-33
2023/08/29 05:32:37;;;;;;;13.40;10.50;;;;;;;-128.00;-1.00;-1.00;18886;289;7504395;-36
2023/08/29 05:35:02;;;;;;;12.70;9.50;;;;;;;-128.00;-1.00;-1.00;18494;296;7504280;-33
2023/08/29 05:37:28;;;;;;;11.40;9.70;;;;;;;-128.00;-1.00;-1.00;18453;297;7504661;-33
2023/08/29 05:39:54;;;;;;;12.00;9.90;;;;;;;-128.00;-1.00;-1.00;18484;289;7504118;-36
2023/08/29 05:42:20;;;;;;;14.80;9.80;;;;;;;-128.00;-1.00;-1.00;18880;298;7504798;-33
2023/08/29 05:44:46;;;;;;;10.50;9.50;;;;;;;-128.00;-1.00;-1.00;18876;349;7504729;-35
2023/08/29 05:47:12;;;;;;;12.40;9.40;;;;;;;-128.00;-1.00;-1.00;18864;296;7504391;-33
2023/08/29 05:49:39;;;;;;;10.00;8.80;;;;;;;-128.00;-1.00;-1.00;18877;296;7504583;-34
2023/08/29 05:52:05;;;;;;;14.10;12.30;;;;;;;-128.00;-1.00;-1.00;18886;297;7507370;-36
2023/08/29 05:54:31;;;;;;;22.30;12.00;;;;;;;-128.00;-1.00;-1.00;18474;296;7504362;-34
2023/08/29 05:56:57;;;;;;;11.70;10.60;;;;;;;-128.00;-1.00;-1.00;18476;296;7504967;-34
2023/08/29 05:59:23;;;;;;;19.10;12.30;;;;;;;-128.00;-1.00;-1.00;18472;296;7505331;-34
2023/08/29 06:01:49;;;;;;;9.40;8.50;;;;;;;-128.00;-1.00;-1.00;18494;285;7504701;-36
2023/08/29 06:04:15;;;;;;;14.90;11.30;;;;;;;-128.00;-1.00;-1.00;18452;296;7506036;-34
2023/08/29 06:06:43;;;;;;;13.50;11.30;;;;;;;-128.00;-1.00;-1.00;18891;285;7504721;-37
2023/08/29 06:09:09;;;;;;;14.40;11.00;;;;;;;-128.00;-1.00;-1.00;18496;285;7504044;-37
2023/08/29 06:11:35;;;;;;;11.20;8.40;;;;;;;-128.00;-1.00;-1.00;18867;297;7504348;-37
2023/08/29 06:14:01;;;;;;;12.80;11.20;;;;;;;-128.00;-1.00;-1.00;18872;296;7504600;-35
2023/08/29 06:16:27;;;;;;;17.00;12.10;;;;;;;-128.00;-1.00;-1.00;18889;289;7504913;-35
2023/08/29 06:18:53;;;;;;;15.10;11.90;;;;;;;-128.00;-1.00;-1.00;18871;285;7504577;-38
2023/08/29 06:21:20;;;;;;;8.60;7.80;;;;;;;-128.00;-1.00;-1.00;18847;285;7504554;-35
2023/08/29 06:23:46;;;;;;;5.70;5.20;;;;;;;-128.00;-1.00;-1.00;18475;289;7504799;-33
2023/08/29 06:26:12;;;;;;;9.20;7.70;;;;;;;-128.00;-1.00;-1.00;18884;285;7504432;-33
2023/08/29 06:28:38;;;;;;;13.10;10.70;;;;;;;-128.00;-1.00;-1.00;18892;297;7504705;-35
2023/08/29 06:31:05;;;;;;;21.20;11.40;;;;;;;-128.00;-1.00;-1.00;18887;348;7504196;-33
2023/08/29 06:33:31;;;;;;;10.90;9.70;;;;;;;-128.00;-1.00;-1.00;18476;285;7504909;-32
2023/08/29 06:35:57;;;;;;;8.60;7.60;;;;;;;-128.00;-1.00;-1.00;18478;296;7504382;-35
2023/08/29 06:38:23;;;;;;;16.70;8.90;;;;;;;-128.00;-1.00;-1.00;18456;342;7506783;-33
2023/08/29 06:41:00;;;;;;;19.60;9.30;;;;;;;-128.00;-1.00;-1.00;18474;304;7504624;-35
2023/08/29 06:43:26;;;;;;;7.90;5.90;;;;;;;-128.00;-1.00;-1.00;18493;297;7504486;-35
2023/08/29 06:45:52;;;;;;;8.10;7.30;;;;;;;-128.00;-1.00;-1.00;18466;296;7505087;-35
2023/08/29 06:48:17;;;;;;;7.10;5.20;;;;;;;-128.00;-1.00;-1.00;18475;296;7504088;-36
2023/08/29 06:50:44;;;;;;;16.10;9.80;;;;;;;-128.00;-1.00;-1.00;18468;289;7504159;-33
2023/08/29 06:53:10;;;;;;;14.20;8.30;;;;;;;-128.00;-1.00;-1.00;18469;289;7506007;-32
2023/08/29 06:55:36;;;;;;;13.50;10.30;;;;;;;-128.00;-1.00;-1.00;18896;296;7504797;-35
2023/08/29 06:58:04;;;;;;;16.00;10.20;;;;;;;-128.00;-1.00;-1.00;18867;320;7505951;-35
2023/08/29 07:00:31;;;;;;;13.40;9.20;;;;;;;-128.00;-1.00;-1.00;18466;285;7505971;-35
2023/08/29 07:02:58;;;;;;;11.00;9.10;;;;;;;-128.00;-1.00;-1.00;18443;285;7505565;-37
2023/08/29 07:05:23;;;;;;;8.20;5.90;;;;;;;-128.00;-1.00;-1.00;18446;296;7504662;-33
2023/08/29 07:07:49;;;;;;;11.10;8.50;;;;;;;-128.00;-1.00;-1.00;18474;349;7504858;-33
2023/08/29 07:10:14;;;;;;;6.00;5.10;;;;;;;-128.00;-1.00;-1.00;18495;296;7504622;-33
2023/08/29 07:12:42;;;;;;;12.20;9.20;;;;;;;-128.00;-1.00;-1.00;18879;289;7506259;-33
2023/08/29 07:15:08;;;;;;;13.90;10.50;;;;;;;-128.00;-1.00;-1.00;18466;289;7506077;-35
2023/08/29 07:17:34;;;;;;;17.40;10.80;;;;;;;-128.00;-1.00;-1.00;18485;296;7504445;-38
2023/08/29 07:20:02;;;;;;;13.30;10.30;;;;;;;-128.00;-1.00;-1.00;18454;296;7505736;-33
2023/08/29 07:22:27;;;;;;;16.10;10.00;;;;;;;-128.00;-1.00;-1.00;18472;285;7504906;-33
2023/08/29 07:24:54;;;;;;;16.00;9.80;;;;;;;-128.00;-1.00;-1.00;18860;296;7504717;-35
2023/08/29 07:27:20;;;;;;;14.80;9.50;;;;;;;-128.00;-1.00;-1.00;18899;285;7504720;-35
2023/08/29 07:29:46;;;;;;;18.60;11.60;;;;;;;-128.00;-1.00;-1.00;18863;348;7504807;-36
2023/08/29 07:32:12;;;;;;;12.20;10.10;;;;;;;-128.00;-1.00;-1.00;18867;289;7505272;-34
2023/08/29 07:34:39;;;;;;;10.80;7.80;;;;;;;-128.00;-1.00;-1.00;18879;296;7505151;-33
2023/08/29 07:37:05;;;;;;;15.40;10.60;;;;;;;-128.00;-1.00;-1.00;18453;289;7506034;-33
2023/08/29 07:39:31;;;;;;;18.60;8.30;;;;;;;-128.00;-1.00;-1.00;18474;297;7504755;-33
2023/08/29 07:41:56;;;;;;;17.20;9.80;;;;;;;-128.00;-1.00;-1.00;18467;296;7504911;-33
2023/08/29 07:44:22;;;;;;;11.40;9.40;;;;;;;-128.00;-1.00;-1.00;18843;285;7504524;-35
2023/08/29 07:46:49;;;;;;;14.80;9.80;;;;;;;-128.00;-1.00;-1.00;18900;289;7504696;-33
2023/08/29 07:49:20;;;;;;;18.30;11.70;;;;;;;-128.00;-1.00;-1.00;18918;289;7505890;-35
2023/08/29 07:51:46;;;;;;;15.90;8.00;;;;;;;-128.00;-1.00;-1.00;18476;336;7506005;-33
2023/08/29 07:54:12;;;;;;;17.80;11.50;;;;;;;-128.00;-1.00;-1.00;18454;296;7506437;-35
2023/08/29 07:56:38;;;;;;;15.30;11.10;;;;;;;-128.00;-1.00;-1.00;18883;296;7504902;-36
2023/08/29 07:59:04;;;;;;;11.40;8.90;;;;;;;-128.00;-1.00;-1.00;18843;289;7506508;-35
2023/08/29 08:01:31;;;;;;;18.80;12.80;;;;;;;-128.00;-1.00;-1.00;18864;340;7505139;-35
2023/08/29 08:03:57;;;;;;;17.90;8.30;;;;;;;-128.00;-1.00;-1.00;18493;288;7505297;-35
2023/08/29 08:06:24;;;;;;;21.00;11.50;;;;;;;-128.00;-1.00;-1.00;18886;348;7504917;-35
2023/08/29 08:08:50;;;;;;;20.30;12.20;;;;;;;-128.00;-1.00;-1.00;18882;296;7504702;-32
2023/08/29 08:11:16;;;;;;;17.50;12.40;;;;;;;-128.00;-1.00;-1.00;18891;296;7505168;-36
2023/08/29 08:13:42;;;;;;;22.30;12.90;;;;;;;-128.00;-1.00;-1.00;18898;312;7505543;-33
2023/08/29 08:16:08;;;;;;;14.70;10.60;;;;;;;-128.00;-1.00;-1.00;18898;296;7504727;-34
2023/08/29 08:18:34;;;;;;;17.40;12.10;;;;;;;-128.00;-1.00;-1.00;18875;296;7504826;-36
2023/08/29 08:21:01;;;;;;;16.40;10.90;;;;;;;-128.00;-1.00;-1.00;18859;288;7504631;-36
2023/08/29 08:23:27;;;;;;;17.30;9.90;;;;;;;-128.00;-1.00;-1.00;18874;288;7504972;-33
2023/08/29 08:25:53;;;;;;;17.60;12.20;;;;;;;-128.00;-1.00;-1.00;18873;296;7504855;-43
2023/08/29 08:28:20;;;;;;;14.20;12.70;;;;;;;-128.00;-1.00;-1.00;18873;296;7505346;-34
2023/08/29 08:30:46;;;;;;;16.90;11.80;;;;;;;-128.00;-1.00;-1.00;18889;286;7504989;-36
2023/08/29 08:33:12;;;;;;;24.00;12.30;;;;;;;-128.00;-1.00;-1.00;18860;297;7504787;-33
2023/08/29 08:35:38;;;;;;;17.40;9.80;;;;;;;-128.00;-1.00;-1.00;18883;296;7504513;-33
2023/08/29 08:38:07;;;;;;;21.10;12.10;;;;;;;-128.00;-1.00;-1.00;18900;285;7505115;-33
2023/08/29 08:40:34;;;;;;;19.70;12.10;;;;;;;-128.00;-1.00;-1.00;18453;296;7505976;-33
2023/08/29 08:43:03;;;;;;;19.50;11.50;;;;;;;-128.00;-1.00;-1.00;18475;296;7504673;-33
2023/08/29 08:45:29;;;;;;;20.50;9.50;;;;;;;-128.00;-1.00;-1.00;18484;285;7504754;-36
2023/08/29 08:47:54;;;;;;;20.20;11.50;;;;;;;-128.00;-1.00;-1.00;18442;298;7506085;-33
2023/08/29 08:50:20;;;;;;;21.20;12.20;;;;;;;-128.00;-1.00;-1.00;18463;296;7505967;-36
2023/08/29 08:52:46;;;;;;;20.80;11.30;;;;;;;-128.00;-1.00;-1.00;18461;285;7504704;-35
2023/08/29 08:55:12;;;;;;;21.30;12.50;;;;;;;-128.00;-1.00;-1.00;18912;296;7504451;-35
2023/08/29 08:57:38;;;;;;;14.30;9.70;;;;;;;-128.00;-1.00;-1.00;18873;289;7504762;-33
2023/08/29 09:00:06;;;;;;;18.60;11.50;;;;;;;-128.00;-1.00;-1.00;18882;285;7505016;-35
2023/08/29 09:02:32;;;;;;;19.50;9.70;;;;;;;-128.00;-1.00;-1.00;18454;296;7504620;-35
2023/08/29 09:04:58;;;;;;;25.20;9.80;;;;;;;-128.00;-1.00;-1.00;18464;296;7504610;-33
2023/08/29 09:07:24;;;;;;;16.30;11.00;;;;;;;-128.00;-1.00;-1.00;18882;297;7504207;-35
2023/08/29 09:10:07;;;;;;;20.50;13.10;;;;;;;-128.00;-1.00;-1.00;18836;298;7504922;-33
2023/08/29 09:12:34;;;;;;;19.90;13.00;;;;;;;-128.00;-1.00;-1.00;18537;297;7506072;-36
2023/08/29 09:15:04;;;;;;;17.00;12.70;;;;;;;-128.00;-1.00;-1.00;18481;336;7504284;-32
2023/08/29 09:17:30;;;;;;;12.10;9.80;;;;;;;-128.00;-1.00;-1.00;18471;296;7504660;-35
2023/08/29 09:19:59;;;;;;;15.00;10.20;;;;;;;-128.00;-1.00;-1.00;18460;348;7504756;-33
2023/08/29 09:22:24;;;;;;;11.90;8.90;;;;;;;-128.00;-1.00;-1.00;17970;296;7504165;-32
2023/08/29 09:24:50;;;;;;;15.10;9.30;;;;;;;-128.00;-1.00;-1.00;18454;296;7505942;-32
2023/08/29 09:27:16;;;;;;;9.00;8.10;;;;;;;-128.00;-1.00;-1.00;18497;296;7504995;-35
2023/08/29 09:29:43;;;;;;;12.00;4.10;;;;;;;-128.00;-1.00;-1.00;18476;296;7506046;-32
2023/08/29 09:32:16;;;;;;;12.30;8.80;;;;;;;-128.00;-1.00;-1.00;18875;289;7504432;-35
2023/08/29 09:34:42;;;;;;;9.50;7.50;;;;;;;-128.00;-1.00;-1.00;18472;336;7504362;-35
2023/08/29 09:37:07;;;;;;;15.30;9.10;;;;;;;-128.00;-1.00;-1.00;18445;296;7506584;-32
2023/08/29 09:39:33;;;;;;;9.10;7.60;;;;;;;-128.00;-1.00;-1.00;18477;296;7504968;-33
2023/08/29 09:42:04;;;;;;;9.90;7.70;;;;;;;-128.00;-1.00;-1.00;18468;296;7506145;-33
2023/08/29 09:44:35;;;;;;;9.70;6.30;;;;;;;-128.00;-1.00;-1.00;18492;289;7506280;-33
2023/08/29 09:47:01;;;;;;;11.60;8.80;;;;;;;-128.00;-1.00;-1.00;18447;296;7507188;-36
2023/08/29 09:49:38;;;;;;;9.20;6.80;;;;;;;-128.00;-1.00;-1.00;18458;289;7505332;-36
2023/08/29 09:52:04;;;;;;;9.10;6.70;;;;;;;-128.00;-1.00;-1.00;18465;285;7506309;-33
2023/08/29 09:54:30;;;;;;;11.30;7.80;;;;;;;-128.00;-1.00;-1.00;18477;336;7506021;-35
2023/08/29 09:56:55;;;;;;;10.10;7.60;;;;;;;-128.00;-1.00;-1.00;18470;296;7504183;-33
2023/08/29 09:59:22;;;;;;;18.20;10.40;;;;;;;-128.00;-1.00;-1.00;18883;296;7504723;-34
2023/08/29 10:01:48;;;;;;;10.40;8.30;;;;;;;-128.00;-1.00;-1.00;18857;289;7505545;-34
2023/08/29 10:04:14;;;;;;;10.80;8.50;;;;;;;-128.00;-1.00;-1.00;18891;348;7506012;-33
2023/08/29 10:06:40;;;;;;;16.20;8.40;;;;;;;-128.00;-1.00;-1.00;18490;285;7504498;-36
2023/08/29 10:09:06;;;;;;;6.70;5.60;;;;;;;-128.00;-1.00;-1.00;18456;296;7506263;-33
2023/08/29 10:11:31;;;;;;;9.80;8.70;;;;;;;-128.00;-1.00;-1.00;18485;285;7504536;-33
2023/08/29 10:13:58;;;;;;;11.20;9.40;;;;;;;-128.00;-1.00;-1.00;18459;285;7506788;-32
2023/08/29 10:16:24;;;;;;;8.70;7.90;;;;;;;-128.00;-1.00;-1.00;18476;308;7504634;-35
2023/08/29 10:18:50;;;;;;;9.30;8.20;;;;;;;-128.00;-1.00;-1.00;18450;289;7504397;-33
2023/08/29 10:21:16;;;;;;;7.90;6.40;;;;;;;-128.00;-1.00;-1.00;18457;348;7504364;-33
2023/08/29 10:23:41;;;;;;;8.10;7.30;;;;;;;-128.00;-1.00;-1.00;18487;296;7504736;-36
2023/08/29 10:26:07;;;;;;;9.30;8.10;;;;;;;-128.00;-1.00;-1.00;18878;296;7504813;-34
2023/08/29 10:28:34;;;;;;;10.60;9.10;;;;;;;-128.00;-1.00;-1.00;18872;289;7504345;-36
2023/08/29 10:31:00;;;;;;;9.40;7.60;;;;;;;-128.00;-1.00;-1.00;18877;296;7505551;-34
2023/08/29 10:33:26;;;;;;;11.40;7.80;;;;;;;-128.00;-1.00;-1.00;18470;296;7504779;-36
2023/08/29 10:35:52;;;;;;;10.70;7.90;;;;;;;-128.00;-1.00;-1.00;18470;296;7504909;-36
2023/08/29 10:38:18;;;;;;;10.90;8.80;;;;;;;-128.00;-1.00;-1.00;18471;289;7505096;-36
2023/08/29 10:40:44;;;;;;;9.40;7.40;;;;;;;-128.00;-1.00;-1.00;18451;296;7505953;-34
2023/08/29 10:43:23;;;;;;;7.70;6.90;;;;;;;-128.00;-1.00;-1.00;18468;297;7505663;-33
2023/08/29 10:45:56;;;;;;;6.20;5.70;;;;;;;-128.00;-1.00;-1.00;18462;296;7504560;-36
2023/08/29 10:48:49;;;;;;;10.00;8.40;;;;;;;-128.00;-1.00;-1.00;18439;296;7506321;-36
2023/08/29 10:51:22;;;;;;;12.60;5.60;;;;;;;-128.00;-1.00;-1.00;18449;285;7505786;-35
2023/08/29 10:53:57;;;;;;;7.40;6.80;;;;;;;-128.00;-1.00;-1.00;18455;289;7506568;-36
2023/08/29 10:56:26;;;;;;;15.20;9.90;;;;;;;-128.00;-1.00;-1.00;18458;343;7504315;-36
2023/08/29 10:58:51;;;;;;;11.90;8.60;;;;;;;-128.00;-1.00;-1.00;18481;296;7504431;-33
2023/08/29 11:01:33;;;;;;;8.00;7.10;;;;;;;-128.00;-1.00;-1.00;18457;297;7504769;-36
2023/08/29 11:04:00;;;;;;;10.10;8.30;;;;;;;-128.00;-1.00;-1.00;18483;289;7505960;-36
2023/08/29 11:06:27;;;;;;;8.50;7.70;;;;;;;-128.00;-1.00;-1.00;18470;285;7504858;-36
2023/08/29 11:09:18;;;;;;;8.30;7.50;;;;;;;-128.00;-1.00;-1.00;18473;285;7505243;-36
2023/08/29 11:12:10;;;;;;;9.80;7.60;;;;;;;-128.00;-1.00;-1.00;18491;296;7505124;-36
2023/08/29 11:14:52;;;;;;;14.10;9.30;;;;;;;-128.00;-1.00;-1.00;18474;285;7504889;-36
2023/08/29 11:17:23;;;;;;;8.00;7.00;;;;;;;-128.00;-1.00;-1.00;18476;296;7505069;-34
2023/08/29 11:19:56;;;;;;;5.60;5.10;;;;;;;-128.00;-1.00;-1.00;18472;288;7506679;-33
2023/08/29 11:22:25;;;;;;;8.50;7.00;;;;;;;-128.00;-1.00;-1.00;18455;285;7504498;-36
2023/08/29 11:24:54;;;;;;;8.00;6.80;;;;;;;-128.00;-1.00;-1.00;18493;296;7505720;-34
2023/08/29 11:27:24;;;;;;;11.70;9.50;;;;;;;-128.00;-1.00;-1.00;18490;296;7505183;-34
2023/08/29 11:29:50;;;;;;;12.00;8.50;;;;;;;-128.00;-1.00;-1.00;18469;285;7504524;-36
2023/08/29 11:32:17;;;;;;;11.20;8.40;;;;;;;-128.00;-1.00;-1.00;18477;348;7504218;-33
2023/08/29 11:34:43;;;;;;;11.60;9.70;;;;;;;-128.00;-1.00;-1.00;18467;296;7505722;-34
2023/08/29 11:37:09;;;;;;;13.70;10.70;;;;;;;-128.00;-1.00;-1.00;18459;296;7505324;-35
2023/08/29 11:39:36;;;;;;;15.60;11.50;;;;;;;-128.00;-1.00;-1.00;18444;348;7505057;-33
2023/08/29 11:42:03;;;;;;;12.70;9.60;;;;;;;-128.00;-1.00;-1.00;18475;308;7506315;-35
2023/08/29 11:44:32;;;;;;;10.80;8.50;;;;;;;-128.00;-1.00;-1.00;18444;348;7506244;-34
2023/08/29 11:49:20;;;;;;;20.90;10.80;;;;;;;;;;100944;288;543375;-32
2023/08/29 11:51:46;;;;;;;12.50;9.90;;;;;;;;;;101369;301;25187;-34
2023/08/29 11:54:23;;;;;;;9.50;7.80;;;;;;;;;;101052;301;24247;-31
2023/08/29 11:56:49;;;;;;;10.70;6.70;;;;;;;;;;101156;301;24171;-32
2023/08/29 11:59:14;;;;;;;10.40;8.00;;;;;;;;;;101045;301;24260;-38
2023/08/29 12:01:40;;;;;;;11.10;9.30;;;;;;;;;;100394;301;799941;-33
2023/08/29 12:04:05;;;;;;;10.80;7.80;;;;;;;;;;101014;289;24151;-33
2023/08/29 12:06:31;;;;;;;8.70;7.60;;;;;;;;;;101142;300;24213;-33
2023/08/29 12:08:57;;;;;;;9.50;8.40;;;;;;;;;;101284;300;24147;-33
2023/08/29 12:11:23;;;;;;;13.20;9.70;;;;;;;;;;101287;300;22699;-37
2023/08/29 12:14:00;;;;;;;10.80;8.60;;;;;;;;;;101100;300;22889;-34